Time;durP1;ratioP1;P1;durP2;ratioP2;P2;SDS_P1;SDS_P2;PMS_P1;PMS_P2;Temp;Humidity;BMP_temperature;BMP_pressure;BME280_temperature;BME280_humidity;BME280_pressure;Samples;Min_cycle;Max_cycle;Signal;HPM_P1;HPM_P2
2020/12/22 00:00:08;;;;;;;12.77;9.00;;;15.20;85.50;;;;;;5039613;28;20040;-73
2020/12/22 00:02:43;;;;;;;13.45;9.15;;;15.30;85.50;;;;;;5059984;28;20032;-74
2020/12/22 00:05:13;;;;;;;14.73;10.10;;;15.30;85.50;;;;;;5037878;28;20040;-74
2020/12/22 00:07:42;;;;;;;14.88;8.93;;;15.30;85.60;;;;;;5039059;28;20051;-74
2020/12/22 00:10:09;;;;;;;16.80;11.60;;;15.30;85.70;;;;;;5054899;28;20055;-74
2020/12/22 00:12:38;;;;;;;14.55;9.77;;;15.30;85.80;;;;;;5037779;28;20036;-74
2020/12/22 00:15:05;;;;;;;15.02;8.90;;;15.40;85.90;;;;;;5057656;28;20086;-74
2020/12/22 00:17:31;;;;;;;12.98;8.60;;;15.40;86.00;;;;;;5062040;28;20058;-74
2020/12/22 00:19:56;;;;;;;14.93;10.95;;;15.50;85.80;;;;;;5058397;28;20067;-74
2020/12/22 00:22:22;;;;;;;13.63;9.05;;;15.50;85.90;;;;;;5042594;28;20083;-74
2020/12/22 00:24:47;;;;;;;12.57;8.65;;;15.50;85.80;;;;;;5019638;28;20569;-74
2020/12/22 00:27:13;;;;;;;12.65;7.75;;;15.60;85.70;;;;;;5024999;28;20052;-74
2020/12/22 00:29:39;;;;;;;12.07;7.97;;;15.60;85.60;;;;;;5059323;28;20040;-74
2020/12/22 00:32:04;;;;;;;13.25;8.68;;;15.60;85.60;;;;;;5041522;28;20033;-74
2020/12/22 00:34:31;;;;;;;13.73;9.23;;;15.60;85.70;;;;;;5065154;28;20048;-74
2020/12/22 00:36:59;;;;;;;15.50;9.68;;;15.60;86.00;;;;;;5060572;28;20446;-74
2020/12/22 00:39:25;;;;;;;16.45;9.45;;;15.60;86.00;;;;;;5064617;28;20024;-74
2020/12/22 00:41:52;;;;;;;13.70;9.68;;;15.70;86.00;;;;;;5057553;28;20025;-74
2020/12/22 00:44:19;;;;;;;13.90;9.18;;;15.70;86.20;;;;;;5042948;28;20044;-74
2020/12/22 00:46:44;;;;;;;14.45;10.23;;;15.70;86.20;;;;;;5062963;28;20513;-74
2020/12/22 00:49:10;;;;;;;12.75;8.30;;;15.70;86.20;;;;;;5043123;28;20124;-73
2020/12/22 00:51:35;;;;;;;11.57;7.75;;;15.70;86.10;;;;;;5048422;28;20111;-74
2020/12/22 00:54:01;;;;;;;13.35;9.15;;;15.80;86.20;;;;;;5046532;28;20540;-74
2020/12/22 00:56:27;;;;;;;11.25;7.53;;;15.80;86.10;;;;;;5045749;28;20121;-74
2020/12/22 00:58:52;;;;;;;11.30;8.15;;;15.80;86.00;;;;;;5044200;28;20049;-74
2020/12/22 01:01:18;;;;;;;10.70;7.45;;;15.80;86.10;;;;;;5049704;28;20040;-74
2020/12/22 01:03:45;;;;;;;10.68;7.10;;;15.90;86.10;;;;;;5065586;28;20112;-74
2020/12/22 01:06:11;;;;;;;10.20;6.55;;;15.90;86.10;;;;;;5065658;28;20029;-74
2020/12/22 01:08:37;;;;;;;10.30;7.10;;;15.90;86.00;;;;;;5066778;28;20032;-74
2020/12/22 01:11:02;;;;;;;10.65;7.20;;;15.90;85.90;;;;;;5048684;28;20036;-75
2020/12/22 01:13:28;;;;;;;11.00;7.53;;;16.00;85.80;;;;;;5064539;28;21336;-75
2020/12/22 01:15:53;;;;;;;9.50;6.38;;;16.00;85.90;;;;;;5061843;28;20021;-74
2020/12/22 01:18:19;;;;;;;9.52;6.40;;;16.00;85.90;;;;;;5066176;28;20076;-74
2020/12/22 01:20:48;;;;;;;9.85;6.15;;;16.00;85.90;;;;;;5029462;28;20063;-74
2020/12/22 01:23:14;;;;;;;9.50;6.35;;;16.00;86.00;;;;;;5058519;28;20047;-74
2020/12/22 01:25:40;;;;;;;8.52;5.93;;;16.00;85.90;;;;;;5037064;28;20029;-74
2020/12/22 01:28:06;;;;;;;8.40;5.68;;;16.10;85.70;;;;;;5069956;28;20039;-74
2020/12/22 01:30:31;;;;;;;8.70;5.50;;;16.10;85.70;;;;;;5045903;28;20467;-75
2020/12/22 01:32:57;;;;;;;8.88;5.30;;;16.20;85.60;;;;;;5065528;28;20482;-74
2020/12/22 01:35:23;;;;;;;9.27;6.07;;;16.10;85.60;;;;;;5047741;28;20485;-74
2020/12/22 01:37:48;;;;;;;8.40;6.00;;;16.10;85.50;;;;;;5046581;28;20043;-74
2020/12/22 01:40:14;;;;;;;7.82;5.15;;;16.20;85.60;;;;;;5070382;28;20028;-74
2020/12/22 01:42:43;;;;;;;7.35;4.88;;;16.20;85.70;;;;;;5073576;28;20028;-75
2020/12/22 01:45:13;;;;;;;8.05;4.75;;;16.20;85.70;;;;;;5026487;28;20060;-74
2020/12/22 01:47:45;;;;;;;8.23;4.63;;;16.20;85.80;;;;;;5046708;28;20047;-75
2020/12/22 01:50:16;;;;;;;7.75;4.25;;;16.20;85.80;;;;;;5065779;28;20247;-74
2020/12/22 01:52:42;;;;;;;7.20;4.65;;;16.20;85.60;;;;;;5066342;28;20027;-74
2020/12/22 01:55:08;;;;;;;6.57;3.67;;;16.30;85.70;;;;;;5039498;28;20033;-74
2020/12/22 01:57:33;;;;;;;6.85;4.28;;;16.20;85.60;;;;;;5069794;28;20071;-74
2020/12/22 01:59:59;;;;;;;6.47;3.90;;;16.20;85.60;;;;;;5027125;28;20084;-73
2020/12/22 02:02:26;;;;;;;7.13;3.85;;;16.20;85.70;;;;;;5051926;28;20028;-73
2020/12/22 02:04:52;;;;;;;7.20;4.32;;;16.20;85.80;;;;;;5068867;28;20048;-73
2020/12/22 02:07:18;;;;;;;5.97;3.53;;;16.30;85.80;;;;;;5068294;28;20059;-73
2020/12/22 02:09:46;;;;;;;7.25;3.90;;;16.30;85.90;;;;;;5070479;28;20028;-74
2020/12/22 02:12:12;;;;;;;6.60;4.00;;;16.20;86.00;;;;;;5052887;28;20124;-73
2020/12/22 02:14:37;;;;;;;6.03;3.53;;;16.20;86.10;;;;;;5071447;28;20060;-73
2020/12/22 02:17:03;;;;;;;5.82;3.42;;;16.20;86.00;;;;;;5051395;28;20036;-73
2020/12/22 02:19:29;;;;;;;6.20;3.50;;;16.30;86.00;;;;;;5033929;28;20028;-73
2020/12/22 02:21:55;;;;;;;5.95;3.40;;;16.30;86.00;;;;;;5064774;28;20108;-74
2020/12/22 02:24:21;;;;;;;5.45;3.10;;;16.30;86.10;;;;;;5029418;28;20132;-74
2020/12/22 02:26:47;;;;;;;5.22;2.75;;;16.30;86.10;;;;;;5043221;28;20044;-73
2020/12/22 02:29:12;;;;;;;7.03;3.45;;;16.30;86.00;;;;;;5042022;28;20390;-73
2020/12/22 02:31:38;;;;;;;5.88;3.15;;;16.30;86.10;;;;;;5068896;28;20108;-73
2020/12/22 02:34:04;;;;;;;5.93;3.28;;;16.30;86.10;;;;;;5071298;28;20101;-74
2020/12/22 02:36:31;;;;;;;5.68;3.28;;;16.30;86.20;;;;;;5031769;28;20048;-73
2020/12/22 02:38:57;;;;;;;4.90;2.50;;;16.30;86.30;;;;;;5044192;28;20101;-73
2020/12/22 02:41:23;;;;;;;5.35;3.10;;;16.30;86.20;;;;;;5035799;28;20044;-73
2020/12/22 02:43:48;;;;;;;5.45;2.97;;;16.30;86.20;;;;;;5027738;28;20399;-73
2020/12/22 02:46:14;;;;;;;5.32;2.80;;;16.30;86.40;;;;;;5064769;28;20039;-74
2020/12/22 02:48:39;;;;;;;19.98;3.05;;;16.30;86.40;;;;;;5066088;28;20033;-74
2020/12/22 02:51:05;;;;;;;5.57;2.80;;;16.30;86.20;;;;;;5063584;28;20028;-74
2020/12/22 02:53:31;;;;;;;5.78;2.75;;;16.30;86.20;;;;;;5050839;28;20174;-74
2020/12/22 02:55:56;;;;;;;5.15;2.95;;;16.40;86.10;;;;;;5045178;28;20059;-74
2020/12/22 02:58:22;;;;;;;4.75;2.45;;;16.30;86.10;;;;;;5062713;28;20048;-73
2020/12/22 03:00:48;;;;;;;5.47;3.08;;;16.40;86.20;;;;;;5065855;28;20493;-73
2020/12/22 03:03:13;;;;;;;6.80;2.83;;;16.30;86.10;;;;;;5067660;28;20056;-73
2020/12/22 03:05:40;;;;;;;5.43;2.90;;;16.30;86.20;;;;;;5069940;28;20054;-74
2020/12/22 03:08:07;;;;;;;6.45;2.80;;;16.30;86.40;;;;;;5041483;28;20122;-73
2020/12/22 03:10:33;;;;;;;5.38;3.13;;;16.30;86.40;;;;;;5043292;28;20547;-74
2020/12/22 03:12:59;;;;;;;5.63;3.10;;;16.30;86.30;;;;;;5046752;28;20056;-72
2020/12/22 03:15:24;;;;;;;6.70;3.95;;;16.30;86.30;;;;;;5041279;28;20033;-73
2020/12/22 03:17:50;;;;;;;6.03;3.80;;;16.30;86.30;;;;;;5040726;28;20119;-74
2020/12/22 03:20:16;;;;;;;6.90;4.15;;;16.30;86.20;;;;;;5046662;28;20116;-73
2020/12/22 03:22:42;;;;;;;6.28;3.97;;;16.30;86.30;;;;;;5047703;28;20054;-73
2020/12/22 03:25:10;;;;;;;6.13;4.03;;;16.30;86.20;;;;;;5050805;28;20073;-73
2020/12/22 03:27:36;;;;;;;6.75;4.07;;;16.30;86.20;;;;;;5070154;28;20038;-73
2020/12/22 03:30:05;;;;;;;7.30;4.72;;;16.30;86.30;;;;;;5065824;28;20097;-73
2020/12/22 03:32:31;;;;;;;6.30;3.90;;;16.30;86.40;;;;;;5060925;28;20381;-73
2020/12/22 03:34:57;;;;;;;6.28;4.10;;;16.30;86.30;;;;;;5034318;28;20039;-73
2020/12/22 03:37:23;;;;;;;6.65;3.88;;;16.20;86.10;;;;;;5047890;28;20178;-74
2020/12/22 03:39:54;;;;;;;5.05;3.00;;;16.30;86.10;;;;;;5045581;28;20182;-73
2020/12/22 03:42:20;;;;;;;5.05;3.03;;;16.20;86.20;;;;;;5049458;28;20681;-74
2020/12/22 03:44:47;;;;;;;4.97;2.80;;;16.10;86.40;;;;;;5046503;28;20056;-74
2020/12/22 03:47:14;;;;;;;5.05;2.90;;;16.10;86.60;;;;;;5062928;28;20457;-74
2020/12/22 03:49:40;;;;;;;4.38;2.70;;;16.00;86.70;;;;;;5065250;28;20048;-73
2020/12/22 03:52:06;;;;;;;4.70;2.72;;;16.10;86.90;;;;;;5059082;28;20060;-73
2020/12/22 03:54:32;;;;;;;5.93;3.35;;;16.10;86.80;;;;;;5041373;28;20455;-73
2020/12/22 03:56:58;;;;;;;5.25;2.78;;;16.10;86.70;;;;;;5045928;28;20490;-74
2020/12/22 03:59:25;;;;;;;5.75;2.72;;;16.10;86.70;;;;;;5067584;28;20645;-73
2020/12/22 04:01:51;;;;;;;4.72;2.63;;;16.00;86.70;;;;;;5065748;28;20052;-74
2020/12/22 04:04:21;;;;;;;4.75;2.50;;;16.00;86.80;;;;;;5050437;28;20074;-74
2020/12/22 04:06:47;;;;;;;5.50;2.78;;;16.00;86.70;;;;;;5041251;28;20041;-74
2020/12/22 04:09:13;;;;;;;5.53;3.17;;;16.00;86.70;;;;;;5046857;28;20028;-73
2020/12/22 04:11:42;;;;;;;5.28;2.88;;;16.00;86.60;;;;;;5063977;28;20047;-73
2020/12/22 04:14:12;;;;;;;5.60;3.05;;;16.10;86.40;;;;;;5056823;28;20058;-73
2020/12/22 04:16:38;;;;;;;6.00;2.60;;;16.10;86.40;;;;;;5047905;28;20354;-73
2020/12/22 04:19:05;;;;;;;6.50;3.40;;;16.10;86.30;;;;;;5045806;28;20472;-74
2020/12/22 04:21:31;;;;;;;5.30;2.65;;;16.10;86.30;;;;;;5038165;28;20052;-74
2020/12/22 04:23:57;;;;;;;5.05;2.85;;;16.00;86.20;;;;;;5047634;28;20065;-74
2020/12/22 04:26:24;;;;;;;5.97;2.50;;;16.10;86.20;;;;;;5043282;28;20496;-73
2020/12/22 04:28:49;;;;;;;4.18;2.40;;;16.10;86.00;;;;;;5066890;28;20033;-73
2020/12/22 04:31:15;;;;;;;3.65;1.98;;;16.00;85.90;;;;;;5036262;28;20039;-74
2020/12/22 04:33:41;;;;;;;4.05;2.17;;;16.00;86.00;;;;;;5061774;28;20029;-73
2020/12/22 04:36:07;;;;;;;6.35;2.25;;;15.90;86.00;;;;;;5038191;28;20040;-73
2020/12/22 04:38:33;;;;;;;6.72;2.53;;;16.00;86.00;;;;;;5045147;28;20028;-73
2020/12/22 04:41:00;;;;;;;5.18;2.83;;;16.00;86.00;;;;;;5039210;28;20040;-74
2020/12/22 04:43:27;;;;;;;4.97;2.60;;;15.90;85.90;;;;;;5066516;28;20067;-74
2020/12/22 04:45:55;;;;;;;7.80;2.58;;;15.90;86.00;;;;;;5023482;28;20110;-73
2020/12/22 04:48:25;;;;;;;4.38;2.22;;;15.90;86.00;;;;;;5064876;28;20040;-74
2020/12/22 04:50:51;;;;;;;4.72;2.58;;;15.90;86.00;;;;;;5066792;28;20025;-74
2020/12/22 04:53:18;;;;;;;5.32;2.70;;;15.90;86.50;;;;;;5069519;28;20393;-74
2020/12/22 04:55:43;;;;;;;5.18;3.00;;;15.90;85.90;;;;;;5063368;28;20029;-74
2020/12/22 04:58:10;;;;;;;8.93;3.72;;;15.90;86.00;;;;;;5066050;28;20140;-74
2020/12/22 05:00:36;;;;;;;5.93;3.58;;;15.90;86.00;;;;;;5048585;28;20097;-74
2020/12/22 05:03:04;;;;;;;7.80;3.72;;;15.90;86.00;;;;;;5070100;28;20028;-74
2020/12/22 05:05:30;;;;;;;6.43;3.42;;;15.90;85.90;;;;;;5064864;28;20489;-74
2020/12/22 05:07:56;;;;;;;6.18;3.75;;;15.90;85.70;;;;;;5054006;28;20466;-74
2020/12/22 05:10:24;;;;;;;5.15;2.75;;;15.90;85.70;;;;;;5053110;28;20178;-74
2020/12/22 05:12:49;;;;;;;5.88;2.90;;;16.00;85.60;;;;;;5071598;28;20035;-74
2020/12/22 05:15:15;;;;;;;4.57;2.50;;;16.00;85.30;;;;;;5067653;28;20041;-74
2020/12/22 05:17:45;;;;;;;4.30;2.30;;;16.00;84.90;;;;;;5030501;28;20036;-74
2020/12/22 05:20:14;;;;;;;4.50;2.13;;;16.00;84.60;;;;;;5061443;28;20041;-73
2020/12/22 05:22:49;;;;;;;4.47;2.30;;;16.00;84.50;;;;;;5063655;28;20150;-74
2020/12/22 05:25:16;;;;;;;4.55;2.17;;;16.00;84.40;;;;;;5050734;28;20028;-74
2020/12/22 05:27:47;;;;;;;6.07;2.17;;;16.00;84.30;;;;;;5072878;28;20046;-74
2020/12/22 05:30:16;;;;;;;5.00;2.47;;;16.00;84.20;;;;;;5067476;28;20029;-74
2020/12/22 05:32:52;;;;;;;5.55;2.45;;;16.00;84.30;;;;;;5041748;28;20041;-74
2020/12/22 05:35:21;;;;;;;4.63;2.55;;;16.10;84.10;;;;;;5047384;28;20033;-74
2020/12/22 05:37:47;;;;;;;4.70;2.58;;;16.10;83.90;;;;;;5068810;28;20151;-74
2020/12/22 05:40:14;;;;;;;6.85;2.78;;;16.10;83.80;;;;;;5068497;28;20037;-74
2020/12/22 05:42:41;;;;;;;4.78;3.00;;;16.10;83.60;;;;;;5066275;28;20121;-74
2020/12/22 05:45:08;;;;;;;5.00;2.67;;;16.10;83.50;;;;;;5068624;28;20052;-74
2020/12/22 05:47:35;;;;;;;8.30;3.92;;;16.10;83.20;;;;;;5045422;28;20455;-75
2020/12/22 05:50:02;;;;;;;5.22;3.00;;;16.00;83.10;;;;;;5052920;28;20064;-74
2020/12/22 05:52:29;;;;;;;6.03;3.17;;;16.10;83.10;;;;;;5066601;28;20052;-74
2020/12/22 05:54:56;;;;;;;7.60;2.92;;;16.10;83.00;;;;;;5069875;28;20056;-73
2020/12/22 05:57:22;;;;;;;6.95;2.50;;;16.10;82.80;;;;;;5037016;28;20175;-74
2020/12/22 05:59:49;;;;;;;5.68;2.88;;;16.10;82.70;;;;;;5070138;28;20124;-73
2020/12/22 06:02:41;;;;;;;6.40;2.30;;;16.10;82.60;;;;;;5068137;28;20127;-73
2020/12/22 06:05:08;;;;;;;6.40;1.98;;;16.10;82.50;;;;;;5045425;28;20037;-74
2020/12/22 06:07:33;;;;;;;5.00;1.70;;;16.10;82.40;;;;;;5051410;28;20036;-74
2020/12/22 06:09:59;;;;;;;4.82;1.60;;;16.00;82.50;;;;;;5052700;28;20512;-74
2020/12/22 06:12:25;;;;;;;5.50;2.10;;;16.10;82.00;;;;;;5035116;28;20048;-73
2020/12/22 06:14:55;;;;;;;6.68;2.50;;;16.00;82.20;;;;;;5052653;28;20032;-74
2020/12/22 06:17:21;;;;;;;6.43;2.80;;;16.10;82.20;;;;;;5062070;28;20211;-74
2020/12/22 06:19:48;;;;;;;5.53;2.38;;;16.10;82.00;;;;;;5052799;28;20569;-74
2020/12/22 06:22:18;;;;;;;7.97;3.33;;;16.10;82.00;;;;;;5046868;28;20040;-74
2020/12/22 06:24:45;;;;;;;5.07;2.97;;;16.10;82.00;;;;;;5050731;28;20025;-74
2020/12/22 06:27:13;;;;;;;7.32;3.88;;;16.10;82.00;;;;;;5059769;28;20393;-74
2020/12/22 06:29:44;;;;;;;9.10;3.80;;;16.10;82.00;;;;;;5049294;28;20028;-75
2020/12/22 06:32:24;;;;;;;9.40;4.50;;;16.10;82.10;;;;;;5053407;28;20031;-75
2020/12/22 06:34:54;;;;;;;9.13;5.53;;;16.10;82.00;;;;;;5066650;28;20089;-74
2020/12/22 06:37:21;;;;;;;13.52;5.60;;;16.20;82.10;;;;;;5060289;28;20040;-74
2020/12/22 06:39:51;;;;;;;20.90;6.35;;;16.20;82.10;;;;;;5055231;28;20538;-74
2020/12/22 06:42:29;;;;;;;10.45;6.15;;;16.10;82.20;;;;;;5018404;28;20029;-74
2020/12/22 06:44:55;;;;;;;13.15;7.15;;;16.20;82.20;;;;;;5067947;28;20028;-74
2020/12/22 06:47:34;;;;;;;10.82;7.53;;;16.20;82.40;;;;;;5065557;28;20040;-75
2020/12/22 06:50:00;;;;;;;11.35;6.88;;;16.20;82.40;;;;;;5026857;28;20064;-74
2020/12/22 06:52:37;;;;;;;11.98;7.93;;;16.20;82.40;;;;;;5041549;28;20033;-75
2020/12/22 06:55:07;;;;;;;9.52;6.78;;;16.10;82.20;;;;;;5039992;28;20090;-74
2020/12/22 06:57:59;;;;;;;13.75;7.85;;;16.20;82.10;;;;;;5058805;28;20043;-74
2020/12/22 07:00:27;;;;;;;15.57;8.00;;;16.20;81.90;;;;;;5062673;28;20055;-74
2020/12/22 07:03:12;;;;;;;9.73;6.72;;;16.10;81.80;;;;;;5050397;28;20058;-75
2020/12/22 07:05:45;;;;;;;11.55;6.93;;;16.80;82.20;;;;;;5054302;28;20041;-75
2020/12/22 07:08:15;;;;;;;15.73;7.13;;;16.10;81.80;;;;;;5024621;28;20344;-75
2020/12/22 07:10:46;;;;;;;13.10;6.30;;;16.10;81.50;;;;;;5067647;28;20043;-75
2020/12/22 07:13:13;;;;;;;10.18;5.32;;;16.10;81.30;;;;;;5066776;28;20025;-74
2020/12/22 07:15:49;;;;;;;12.20;4.53;;;16.10;80.60;;;;;;5054021;28;20033;-74
2020/12/22 07:18:18;;;;;;;11.38;5.63;;;16.10;80.40;;;;;;5063287;28;20059;-74
2020/12/22 07:20:46;;;;;;;8.35;4.10;;;16.10;80.10;;;;;;5053995;28;20108;-75
2020/12/22 07:23:13;;;;;;;6.70;3.58;;;16.10;79.90;;;;;;5046769;28;20035;-75
2020/12/22 07:25:40;;;;;;;10.40;3.85;;;16.10;79.40;;;;;;5046701;28;20032;-75
2020/12/22 07:28:08;;;;;;;6.72;3.38;;;16.10;79.30;;;;;;5027057;28;20044;-75
2020/12/22 07:30:34;;;;;;;7.75;3.05;;;16.10;79.10;;;;;;5060757;28;20047;-74
2020/12/22 07:33:01;;;;;;;7.53;2.60;;;16.10;79.00;;;;;;5069801;28;20037;-75
2020/12/22 07:35:28;;;;;;;8.52;3.05;;;16.10;78.80;;;;;;5052826;28;20044;-75
2020/12/22 07:38:14;;;;;;;6.53;3.03;;;16.10;78.80;;;;;;5049532;28;20041;-74
2020/12/22 07:40:40;;;;;;;9.13;2.75;;;16.10;78.50;;;;;;5065971;28;20041;-75
2020/12/22 07:43:08;;;;;;;4.00;1.90;;;16.10;78.70;;;;;;5066722;28;20029;-74
2020/12/22 07:45:34;;;;;;;6.72;2.33;;;16.10;78.70;;;;;;5040710;28;20032;-74
2020/12/22 07:48:04;;;;;;;8.20;2.00;;;16.10;78.70;;;;;;5063614;28;20115;-74
2020/12/22 07:50:29;;;;;;;6.90;2.00;;;16.00;78.40;;;;;;5039665;28;20025;-75
2020/12/22 07:52:57;;;;;;;7.63;2.03;;;16.10;78.40;;;;;;5065003;28;20102;-75
2020/12/22 07:55:22;;;;;;;5.32;1.70;;;16.00;78.30;;;;;;5020369;28;20475;-82
2020/12/22 07:57:49;;;;;;;6.22;2.35;;;16.10;78.20;;;;;;5027635;28;20053;-81
2020/12/22 08:00:15;;;;;;;6.32;1.50;;;16.00;78.10;;;;;;5056707;28;20122;-78
2020/12/22 08:02:41;;;;;;;6.38;1.80;;;15.90;78.20;;;;;;5037955;28;20134;-85
2020/12/22 08:05:13;;;;;;;4.45;1.63;;;15.90;78.30;;;;;;5023077;28;20041;-81
2020/12/22 08:07:42;;;;;;;7.53;1.60;;;15.90;78.50;;;;;;5062960;28;20032;-83
2020/12/22 08:10:15;;;;;;;6.60;1.48;;;15.90;78.40;;;;;;5037599;28;20051;-84
2020/12/22 08:12:42;;;;;;;6.55;1.65;;;15.90;78.30;;;;;;5030514;28;20128;-85
2020/12/22 08:15:10;;;;;;;9.23;2.15;;;15.90;78.60;;;;;;5028482;28;20764;-83
2020/12/22 08:17:45;;;;;;;10.40;2.92;;;15.90;78.60;;;;;;5043037;28;20036;-80
2020/12/22 08:20:13;;;;;;;14.15;2.60;;;15.90;78.60;;;;;;5059325;28;20589;-84
2020/12/22 08:22:42;;;;;;;7.35;1.67;;;15.90;78.80;;;;;;5048268;28;20043;-78
2020/12/22 08:25:08;;;;;;;6.53;1.40;;;15.90;78.70;;;;;;5062450;28;20037;-74
2020/12/22 08:27:34;;;;;;;9.13;2.05;;;15.80;78.80;;;;;;5029642;28;20487;-79
2020/12/22 08:30:00;;;;;;;11.43;2.30;;;15.80;79.00;;;;;;5047016;28;20680;-80
2020/12/22 08:32:26;;;;;;;9.00;2.25;;;15.80;79.30;;;;;;5062554;28;20036;-79
2020/12/22 08:34:53;;;;;;;6.57;1.98;;;15.80;79.40;;;;;;5044239;28;20036;-80
2020/12/22 08:37:26;;;;;;;9.05;2.17;;;15.70;79.50;;;;;;5047513;28;20115;-84
2020/12/22 08:39:53;;;;;;;7.38;2.13;;;15.70;79.60;;;;;;5062266;28;20036;-86
2020/12/22 08:42:20;;;;;;;14.23;3.33;;;15.80;79.60;;;;;;5036567;28;20090;-75
2020/12/22 08:44:51;;;;;;;9.88;2.05;;;15.80;79.50;;;;;;5042520;28;20036;-74
2020/12/22 08:47:18;;;;;;;14.68;3.45;;;15.80;79.20;;;;;;5061828;28;20161;-74
2020/12/22 08:49:44;;;;;;;8.73;2.78;;;15.80;79.30;;;;;;5058705;28;20033;-74
2020/12/22 08:52:18;;;;;;;8.70;2.10;;;15.90;79.30;;;;;;5061136;28;20021;-89
2020/12/22 08:54:45;;;;;;;8.73;2.42;;;15.90;79.20;;;;;;5039846;28;20047;-79
2020/12/22 08:57:16;;;;;;;13.73;2.40;;;15.90;79.30;;;;;;5063380;28;20113;-79
2020/12/22 08:59:42;;;;;;;7.03;1.75;;;15.90;79.40;;;;;;5038287;28;20112;-81
2020/12/22 09:02:43;;;;;;;7.82;2.15;;;15.80;79.50;;;;;;5040510;28;20160;-83
2020/12/22 09:05:17;;;;;;;7.75;2.00;;;15.70;79.70;;;;;;5017610;28;20044;-85
2020/12/22 09:07:43;;;;;;;9.73;1.67;;;15.70;80.20;;;;;;5036382;28;20114;-87
2020/12/22 09:10:10;;;;;;;14.07;2.63;;;15.70;80.20;;;;;;5044656;28;20037;-82
2020/12/22 09:12:36;;;;;;;8.90;2.60;;;15.70;80.00;;;;;;5043971;28;20036;-80
2020/12/22 09:15:06;;;;;;;9.77;2.03;;;15.70;79.80;;;;;;5028178;28;20044;-81
2020/12/22 09:17:33;;;;;;;11.25;3.08;;;16.90;80.50;;;;;;5044703;28;20041;-74
2020/12/22 09:19:59;;;;;;;10.68;2.42;;;15.70;79.90;;;;;;5059219;28;20056;-78
2020/12/22 09:22:27;;;;;;;8.88;2.53;;;15.70;79.70;;;;;;5060110;28;20025;-80
2020/12/22 09:24:55;;;;;;;6.97;2.72;;;15.70;79.60;;;;;;5060878;28;20025;-79
2020/12/22 09:27:31;;;;;;;7.35;2.30;;;15.70;79.50;;;;;;5061640;28;20033;-78
2020/12/22 09:29:57;;;;;;;8.27;2.70;;;15.80;79.20;;;;;;5057957;28;20059;-76
2020/12/22 09:32:23;;;;;;;10.35;2.97;;;15.80;79.10;;;;;;5023106;28;20039;-73
2020/12/22 09:34:49;;;;;;;9.25;2.88;;;15.80;79.00;;;;;;5040717;28;20029;-78
2020/12/22 09:37:15;;;;;;;8.95;3.08;;;15.80;79.00;;;;;;5033449;28;20112;-77
2020/12/22 09:39:40;;;;;;;11.52;2.80;;;15.80;79.20;;;;;;5020651;28;20455;-77
2020/12/22 09:42:06;;;;;;;13.50;2.88;;;15.70;79.40;;;;;;5054200;28;20861;-81
2020/12/22 09:44:34;;;;;;;11.23;2.85;;;15.70;79.70;;;;;;5037669;28;20138;-82
2020/12/22 09:46:59;;;;;;;8.93;2.75;;;15.70;79.90;;;;;;5041573;28;20057;-83
2020/12/22 09:49:26;;;;;;;12.70;3.85;;;15.70;79.90;;;;;;5040542;28;20505;-82
2020/12/22 09:51:53;;;;;;;12.13;3.28;;;15.80;80.00;;;;;;5054402;28;20054;-80
2020/12/22 09:54:19;;;;;;;7.65;3.17;;;15.80;80.00;;;;;;5060115;28;20037;-81
2020/12/22 09:56:45;;;;;;;13.32;3.60;;;15.80;80.00;;;;;;5059518;28;20043;-77
2020/12/22 09:59:11;;;;;;;12.98;3.10;;;15.80;79.90;;;;;;5057100;28;20378;-77
2020/12/22 10:01:37;;;;;;;12.65;3.05;;;15.80;79.70;;;;;;5039755;28;20060;-77
2020/12/22 10:04:03;;;;;;;12.73;2.85;;;15.80;79.70;;;;;;5039981;28;20068;-78
2020/12/22 10:06:29;;;;;;;10.30;2.92;;;15.90;79.70;;;;;;5054618;28;20033;-77
2020/12/22 10:08:55;;;;;;;13.20;3.63;;;15.90;79.60;;;;;;5038171;28;20413;-78
2020/12/22 10:11:22;;;;;;;9.85;2.67;;;15.90;79.50;;;;;;5039173;28;20387;-76
2020/12/22 10:13:48;;;;;;;13.88;3.28;;;15.90;79.30;;;;;;5040162;28;20029;-81
2020/12/22 10:16:16;;;;;;;9.00;3.20;;;15.90;79.10;;;;;;5045412;28;20541;-80
2020/12/22 10:18:42;;;;;;;6.55;2.33;;;15.90;79.10;;;;;;5060788;28;20037;-76
2020/12/22 10:21:10;;;;;;;12.80;3.67;;;15.90;79.00;;;;;;5061399;28;20334;-76
2020/12/22 10:23:36;;;;;;;11.00;3.20;;;15.90;79.00;;;;;;5041133;28;20332;-74
2020/12/22 10:26:07;;;;;;;14.70;3.38;;;15.90;79.20;;;;;;5042876;28;20139;-74
2020/12/22 10:28:34;;;;;;;11.65;3.47;;;15.90;79.50;;;;;;5065401;28;20058;-73
2020/12/22 10:31:01;;;;;;;9.98;3.00;;;15.80;79.70;;;;;;5066766;28;20033;-74
2020/12/22 10:33:27;;;;;;;13.73;3.20;;;15.80;80.00;;;;;;5028367;28;20127;-75
2020/12/22 10:35:53;;;;;;;12.05;3.42;;;15.90;80.00;;;;;;5045723;28;20170;-74
2020/12/22 10:38:19;;;;;;;9.57;3.00;;;15.90;80.10;;;;;;5059955;28;20075;-76
2020/12/22 10:40:45;;;;;;;11.32;3.33;;;15.80;80.00;;;;;;5050896;28;20184;-75
2020/12/22 10:43:11;;;;;;;10.95;3.50;;;15.80;80.20;;;;;;5050488;28;20033;-78
2020/12/22 10:45:37;;;;;;;13.30;3.28;;;15.70;80.50;;;;;;5054221;28;20028;-77
2020/12/22 10:48:03;;;;;;;7.47;3.15;;;15.70;80.80;;;;;;5021387;28;20044;-75
2020/12/22 10:50:29;;;;;;;11.82;3.33;;;15.60;81.30;;;;;;5060516;28;20040;-72
2020/12/22 10:52:55;;;;;;;9.65;3.25;;;15.50;81.60;;;;;;5052342;28;20025;-73
2020/12/22 10:55:21;;;;;;;12.15;4.05;;;15.50;81.70;;;;;;5036872;28;20077;-73
2020/12/22 10:57:47;;;;;;;19.48;5.43;;;16.10;81.90;;;;;;5050591;28;20490;-73
2020/12/22 11:00:13;;;;;;;14.32;4.30;;;15.50;81.70;;;;;;5045099;28;20052;-73
2020/12/22 11:02:40;;;;;;;13.32;4.13;;;15.50;81.80;;;;;;5059516;28;20033;-73
2020/12/22 11:05:05;;;;;;;11.52;4.25;;;15.50;82.00;;;;;;5055282;28;20033;-73
2020/12/22 11:07:43;;;;;;;15.25;4.18;;;15.50;82.10;;;;;;5054574;28;20036;-73
2020/12/22 11:10:09;;;;;;;12.98;4.32;;;15.50;82.00;;;;;;5039293;28;20024;-74
2020/12/22 11:12:35;;;;;;;13.82;5.07;;;15.50;81.90;;;;;;5061862;28;20476;-79
2020/12/22 11:15:00;;;;;;;9.10;4.75;;;15.60;81.80;;;;;;5041471;28;20247;-78
2020/12/22 11:17:26;;;;;;;13.55;5.28;;;15.60;81.70;;;;;;5054075;28;20040;-82
2020/12/22 11:19:52;;;;;;;12.85;5.63;;;15.60;81.60;;;;;;5036684;28;20082;-82
2020/12/22 11:22:18;;;;;;;10.98;4.68;;;15.50;81.70;;;;;;5037961;28;20064;-82
2020/12/22 11:24:44;;;;;;;12.40;4.82;;;15.50;81.40;;;;;;5059866;28;20028;-79
2020/12/22 11:27:10;;;;;;;12.85;4.38;;;15.50;81.50;;;;;;5042665;28;20087;-78
2020/12/22 11:29:35;;;;;;;5.47;2.20;;;15.40;80.60;;;;;;5061755;28;20036;-75
2020/12/22 11:32:01;;;;;;;8.32;2.75;;;15.40;80.40;;;;;;5062092;28;20238;-77
2020/12/22 11:34:27;;;;;;;7.13;2.35;;;15.30;80.60;;;;;;5056324;28;20490;-77
2020/12/22 11:36:54;;;;;;;4.78;2.00;;;15.30;80.40;;;;;;5052170;28;20168;-75
2020/12/22 11:39:20;;;;;;;5.85;2.40;;;15.30;80.60;;;;;;5024213;28;20098;-75
2020/12/22 11:41:47;;;;;;;6.30;2.17;;;15.20;80.70;;;;;;5056317;28;20406;-75
2020/12/22 11:44:15;;;;;;;8.00;2.28;;;15.30;80.60;;;;;;5052683;28;20256;-76
2020/12/22 11:46:50;;;;;;;3.92;1.67;;;15.20;80.50;;;;;;5051162;28;20079;-75
2020/12/22 11:49:15;;;;;;;4.78;1.67;;;15.20;80.30;;;;;;5060414;28;20508;-76
2020/12/22 11:51:41;;;;;;;5.68;1.65;;;15.10;80.00;;;;;;5055809;28;20036;-78
2020/12/22 11:54:07;;;;;;;4.85;1.85;;;14.90;80.00;;;;;;5054001;28;20029;-74
2020/12/22 11:56:32;;;;;;;3.90;1.50;;;14.80;80.40;;;;;;5043142;28;20028;-74
2020/12/22 11:58:58;;;;;;;4.57;1.40;;;14.80;80.40;;;;;;5064034;28;20049;-81
2020/12/22 12:01:30;;;;;;;3.63;1.50;;;14.80;80.20;;;;;;5043605;28;20521;-87
2020/12/22 12:03:56;;;;;;;4.30;1.77;;;14.70;79.80;;;;;;5061723;28;20421;-81
2020/12/22 12:06:24;;;;;;;2.92;1.50;;;14.60;80.40;;;;;;5044545;28;21201;-77
2020/12/22 12:08:50;;;;;;;2.78;1.40;;;14.50;80.50;;;;;;5033956;28;20044;-83
2020/12/22 12:11:16;;;;;;;3.20;1.23;;;14.50;80.50;;;;;;5036946;28;20122;-84
2020/12/22 12:13:41;;;;;;;3.92;1.50;;;14.50;80.80;;;;;;5062790;28;20044;-82
2020/12/22 12:16:07;;;;;;;4.95;1.48;;;14.50;80.80;;;;;;5032474;28;20051;-81
2020/12/22 12:18:33;;;;;;;3.20;1.50;;;14.40;80.80;;;;;;5057141;28;20033;-83
2020/12/22 12:20:59;;;;;;;7.57;1.90;;;14.40;80.90;;;;;;5035959;28;20032;-78
2020/12/22 12:23:26;;;;;;;3.50;2.00;;;14.40;81.00;;;;;;5054705;28;20075;-77
2020/12/22 12:25:52;;;;;;;4.53;2.00;;;14.40;81.20;;;;;;5057989;28;20458;-78
2020/12/22 12:28:18;;;;;;;5.05;2.10;;;14.40;81.00;;;;;;5042641;28;20499;-84
2020/12/22 12:30:43;;;;;;;3.47;1.80;;;14.30;81.10;;;;;;5039937;28;20083;-78
2020/12/22 12:33:09;;;;;;;5.25;2.28;;;14.30;81.20;;;;;;5033723;28;20077;-78
2020/12/22 12:35:35;;;;;;;5.78;2.30;;;14.30;81.20;;;;;;5037776;28;20513;-77
2020/12/22 12:38:01;;;;;;;4.72;2.00;;;14.40;81.20;;;;;;5042506;28;20071;-81
2020/12/22 12:40:26;;;;;;;4.88;2.08;;;14.40;81.10;;;;;;5027713;28;20033;-73
2020/12/22 12:42:52;;;;;;;7.85;2.55;;;14.40;80.80;;;;;;5058325;28;20068;-74